Time;durP1;ratioP1;P1;durP2;ratioP2;P2;SDS_P1;SDS_P2;PMS_P1;PMS_P2;Temp;Humidity;BMP_temperature;BMP_pressure;BME280_temperature;BME280_humidity;BME280_pressure;Samples;Min_cycle;Max_cycle;Signal;HPM_P1;HPM_P2
2021/12/21 00:01:52;;;;;;;4.77;2.80;;;;;;;2.31;57.40;97112.22;5046239;28;20289;-68
2021/12/21 00:05:20;;;;;;;5.50;3.10;;;;;;;2.31;57.23;97106.25;5046285;28;20866;-63
2021/12/21 00:08:41;;;;;;;10.37;5.57;;;;;;;2.25;56.64;97106.34;5046378;28;20886;-67
2021/12/21 00:12:02;;;;;;;7.83;4.20;;;;;;;2.31;56.92;97106.25;5046554;28;20193;-69
2021/12/21 00:16:12;;;;;;;4.83;2.97;;;;;;;2.37;56.38;97112.16;5046063;28;20285;-63
2021/12/21 00:19:45;;;;;;;4.57;2.70;;;;;;;2.41;56.56;97116.34;5044542;28;20194;-67
2021/12/21 00:26:13;;;;;;;6.20;2.97;;;;;;;2.45;57.09;97118.00;5046160;28;20371;-66
2021/12/21 00:29:34;;;;;;;9.13;5.03;;;;;;;2.40;57.34;97112.13;5046258;28;20196;-67
2021/12/21 00:32:55;;;;;;;3.73;3.40;;;;;;;2.43;57.50;97119.72;5046009;28;20190;-66
2021/12/21 00:36:15;;;;;;;6.30;3.43;;;;;;;2.37;57.06;97119.81;5046117;28;20186;-66
2021/12/21 00:39:36;;;;;;;3.93;3.10;;;;;;;2.39;57.58;97114.69;5045979;28;20570;-68
2021/12/21 00:42:57;;;;;;;8.30;4.43;;;;;;;2.39;57.43;97120.63;5045802;28;20240;-69
2021/12/21 00:46:17;;;;;;;7.43;5.13;;;;;;;2.49;57.86;97114.53;5046082;28;20617;-70
2021/12/21 00:49:44;;;;;;;8.13;4.83;;;;;;;2.50;56.97;97112.84;5048641;28;20201;-67
2021/12/21 00:53:05;;;;;;;7.00;4.73;;;;;;;2.58;57.28;97122.97;5049920;28;20649;-67
2021/12/21 00:56:26;;;;;;;5.43;4.10;;;;;;;2.57;56.86;97114.47;5049704;28;20182;-66
2021/12/21 00:59:46;;;;;;;5.40;4.70;;;;;;;2.62;56.37;97120.34;5048010;28;20182;-67
2021/12/21 01:03:11;;;;;;;4.77;3.10;;;;;;;2.63;55.66;97122.03;5049748;28;20285;-69
2021/12/21 01:06:42;;;;;;;4.50;2.60;;;;;;;2.55;55.75;97126.41;5049521;28;20221;-67
2021/12/21 01:17:24;;;;;;;3.07;2.43;;;;;;;2.57;56.24;97126.38;5037351;28;20202;-66
2021/12/21 01:21:34;;;;;;;2.70;2.40;;;;;;;2.53;55.92;97120.47;5049522;28;20201;-70
2021/12/21 01:24:51;;;;;;;3.77;2.50;;;;;;;2.42;57.44;97112.94;5045626;28;20190;-68
2021/12/21 01:28:34;;;;;;;3.03;2.30;;;;;;;2.39;57.23;97135.16;5049216;28;20243;-67
2021/12/21 01:35:45;;;;;;;4.77;3.20;;;;;;;2.41;57.28;97130.88;5036766;28;20213;-65
2021/12/21 01:49:45;;;;;;;5.30;3.00;;;;;;;2.33;55.90;97112.19;5048824;28;20198;-67
2021/12/21 01:53:06;;;;;;;2.80;2.40;;;;;;;2.37;56.15;97111.31;5048707;28;20194;-68
2021/12/21 01:56:27;;;;;;;5.10;2.93;;;;;;;2.38;56.26;97113.00;5048687;28;20193;-68
2021/12/21 01:59:47;;;;;;;9.13;4.53;;;;;;;2.34;55.69;97106.25;5047887;28;20228;-68
2021/12/21 02:03:12;;;;;;;4.60;2.47;;;;;;;2.35;56.03;97107.91;5048885;28;20189;-67
2021/12/21 02:06:32;;;;;;;5.13;3.20;;;;;;;2.32;54.81;97111.38;5048454;28;20313;-67
2021/12/21 02:09:53;;;;;;;3.33;2.47;;;;;;;2.32;55.66;97113.94;5046358;28;20190;-67
2021/12/21 02:13:14;;;;;;;3.50;2.50;;;;;;;2.24;54.73;97104.66;5048500;28;20673;-66
2021/12/21 02:16:53;;;;;;;5.20;2.93;;;;;;;2.25;54.85;97098.69;5048084;28;20206;-68
2021/12/21 02:23:52;;;;;;;7.90;3.30;;;;;;;2.28;55.07;97117.38;5062868;28;20243;-67
2021/12/21 02:27:28;;;;;;;5.80;2.80;;;;;;;2.30;54.01;97117.38;5048078;28;20197;-66
2021/12/21 02:30:52;;;;;;;4.53;3.23;;;;;;;2.26;52.97;97119.13;5047837;28;20212;-68
2021/12/21 02:34:13;;;;;;;3.00;2.10;;;;;;;2.29;53.55;97113.09;5048141;28;20194;-68
2021/12/21 02:37:34;;;;;;;8.00;3.17;;;;;;;2.30;54.32;97112.25;5047690;28;20201;-67
2021/12/21 02:40:54;;;;;;;1.97;1.77;;;;;;;2.36;53.26;97109.63;5047882;28;20227;-69
2021/12/21 02:44:15;;;;;;;5.77;3.77;;;;;;;2.31;53.60;97117.34;5047511;28;20238;-68
2021/12/21 02:47:36;;;;;;;4.40;2.80;;;;;;;2.23;53.96;97108.06;5047848;28;20190;-67
2021/12/21 02:50:56;;;;;;;3.70;2.80;;;;;;;2.23;53.74;97113.19;5047471;28;20209;-64
2021/12/21 02:54:17;;;;;;;2.10;1.90;;;;;;;2.15;53.49;97102.22;5047598;28;20653;-67
2021/12/21 02:57:38;;;;;;;2.83;2.47;;;;;;;2.11;53.95;97103.97;5047517;28;20186;-70
2021/12/21 03:00:58;;;;;;;2.13;1.80;;;;;;;2.09;54.53;97104.84;5045584;28;20194;-67
2021/12/21 03:04:19;;;;;;;2.80;1.90;;;;;;;2.14;53.50;97103.91;5045525;28;20200;-65
2021/12/21 03:11:21;;;;;;;3.27;1.90;;;;;;;2.14;54.79;97123.53;5047138;28;20267;-68
2021/12/21 03:14:43;;;;;;;3.60;2.67;;;;;;;2.09;55.37;97121.03;5047159;28;20216;-67
2021/12/21 03:18:04;;;;;;;4.37;2.40;;;;;;;2.10;54.20;97137.19;5047242;28;20204;-68
2021/12/21 03:21:24;;;;;;;2.47;2.27;;;;;;;2.14;53.64;97138.84;5047071;28;20185;-69
2021/12/21 03:24:45;;;;;;;2.47;1.93;;;;;;;2.08;53.67;97128.72;5046837;28;20669;-68
2021/12/21 03:28:06;;;;;;;4.03;2.10;;;;;;;2.14;54.05;97138.84;5046955;28;20209;-68
2021/12/21 03:31:26;;;;;;;3.10;1.80;;;;;;;2.16;52.87;97132.00;5046866;28;20649;-68
2021/12/21 03:34:47;;;;;;;3.67;2.50;;;;;;;2.21;52.96;97135.34;5046969;28;20197;-69
2021/12/21 03:38:08;;;;;;;4.17;2.63;;;;;;;2.07;53.03;97120.19;5046723;28;20285;-67
2021/12/21 03:41:29;;;;;;;4.37;2.77;;;;;;;2.24;52.87;97133.63;5046656;28;20197;-69
2021/12/21 03:44:49;;;;;;;4.80;2.47;;;;;;;2.27;54.04;97145.50;5046446;28;20252;-67
2021/12/21 03:48:13;;;;;;;7.83;3.50;;;;;;;2.23;52.76;97141.28;5046605;28;20186;-69
2021/12/21 03:51:34;;;;;;;7.20;3.23;;;;;;;2.26;52.50;97143.81;5046496;28;20197;-69
2021/12/21 03:54:55;;;;;;;9.33;4.40;;;;;;;2.24;52.71;97132.75;5046444;28;20190;-66
2021/12/21 03:58:15;;;;;;;8.37;4.30;;;;;;;2.14;53.33;97144.78;5046530;28;20232;-68
2021/12/21 04:01:36;;;;;;;4.27;3.33;;;;;;;2.11;53.59;97152.50;5046302;28;20213;-66
2021/12/21 04:04:58;;;;;;;4.40;2.80;;;;;;;2.13;52.93;97171.19;5046373;28;20186;-66
2021/12/21 04:08:19;;;;;;;5.13;2.67;;;;;;;2.09;53.06;97161.03;5046199;28;20570;-69
2021/12/21 04:11:40;;;;;;;11.13;5.23;;;;;;;2.08;53.27;97180.59;5046295;28;20248;-69
2021/12/21 04:15:03;;;;;;;8.53;5.07;;;;;;;2.03;55.03;97168.75;5046257;28;20596;-68
2021/12/21 04:18:24;;;;;;;9.60;4.10;;;;;;;2.03;55.41;97181.53;5046140;28;20281;-65
2021/12/21 04:21:44;;;;;;;8.50;4.80;;;;;;;2.01;55.23;97183.25;5060792;28;20657;-69
2021/12/21 04:25:05;;;;;;;3.60;2.83;;;;;;;1.99;55.17;97190.09;5066276;28;20225;-69
2021/12/21 04:28:26;;;;;;;9.03;5.53;;;;;;;1.89;55.98;97183.38;5058952;28;20228;-66
2021/12/21 04:31:48;;;;;;;4.63;3.00;;;;;;;1.92;56.62;97181.63;5065743;28;20231;-68
2021/12/21 04:35:09;;;;;;;3.23;2.70;;;;;;;1.97;56.94;97191.81;5061750;28;20189;-63
2021/12/21 04:38:34;;;;;;;4.73;3.30;;;;;;;1.92;56.66;97193.53;5053569;28;20197;-68
2021/12/21 04:41:56;;;;;;;2.27;1.90;;;;;;;1.93;55.71;97185.88;5067671;28;20193;-69
2021/12/21 04:45:17;;;;;;;4.07;2.13;;;;;;;1.93;55.20;97192.69;5069505;28;21532;-69
2021/12/21 04:48:37;;;;;;;3.33;1.87;;;;;;;1.96;56.18;97205.44;5069598;28;20193;-67
2021/12/21 04:51:58;;;;;;;3.47;2.63;;;;;;;1.96;56.45;97211.38;5069760;28;20189;-70
2021/12/21 04:55:19;;;;;;;2.50;2.30;;;;;;;1.95;56.34;97214.81;5069604;28;20220;-68
2021/12/21 04:58:39;;;;;;;1.73;1.63;;;;;;;1.96;55.03;97215.66;5070074;28;20196;-68
2021/12/21 05:02:00;;;;;;;6.00;2.93;;;;;;;1.97;56.07;97217.34;5069483;28;20722;-68
2021/12/21 05:05:21;;;;;;;2.63;2.37;;;;;;;1.97;55.69;97230.09;5067384;28;20217;-68
2021/12/21 05:08:42;;;;;;;2.60;2.13;;;;;;;2.00;56.39;97240.31;5069156;28;20668;-68
2021/12/21 05:12:05;;;;;;;2.73;2.03;;;;;;;1.93;56.43;97239.50;5069191;28;20200;-67
2021/12/21 05:15:26;;;;;;;3.00;2.50;;;;;;;1.92;56.22;97257.38;5069158;28;20193;-68
2021/12/21 05:18:47;;;;;;;2.93;2.50;;;;;;;1.86;57.08;97252.31;5069301;28;20220;-69
2021/12/21 05:22:07;;;;;;;3.10;2.80;;;;;;;1.84;56.43;97247.25;5069229;28;20185;-70
2021/12/21 05:25:28;;;;;;;5.57;3.20;;;;;;;1.91;56.92;97261.66;5068864;28;20719;-69
2021/12/21 05:28:50;;;;;;;7.10;5.40;;;;;;;1.85;57.66;97253.19;5062454;28;20669;-68
2021/12/21 05:31:31;;;;;;;4.57;3.13;;;;;;;1.90;56.48;97261.66;5067211;28;20246;-65
2021/12/21 05:33:58;;;;;;;5.67;3.13;;;;;;;1.90;56.30;97264.19;5067519;28;20322;-65
2021/12/21 05:36:25;;;;;;;5.20;2.47;;;;;;;1.82;56.87;97265.97;5068535;28;20227;-67
2021/12/21 05:38:59;;;;;;;6.90;3.23;;;;;;;1.87;57.51;97264.25;5069197;28;20197;-66
2021/12/21 05:41:39;;;;;;;5.47;3.10;;;;;;;1.94;55.17;97271.81;5068625;28;20308;-64
2021/12/21 05:44:06;;;;;;;4.33;3.33;;;;;;;2.03;55.79;97278.56;5068574;28;20229;-68
2021/12/21 05:46:34;;;;;;;5.37;3.37;;;;;;;2.06;54.51;97278.56;5067371;28;20190;-66
2021/12/21 05:49:01;;;;;;;3.53;2.60;;;;;;;2.09;54.41;97284.47;5067529;28;20682;-65
2021/12/21 05:51:28;;;;;;;9.07;4.53;;;;;;;2.11;55.09;97277.66;5068867;28;20192;-67
2021/12/21 05:53:55;;;;;;;9.57;5.60;;;;;;;2.11;54.54;97289.56;5068553;28;20219;-66
2021/12/21 05:56:23;;;;;;;10.47;5.40;;;;;;;2.06;54.77;97288.78;5067320;28;20232;-68
2021/12/21 05:58:50;;;;;;;5.43;3.87;;;;;;;2.14;54.69;97302.31;5068416;28;20303;-67
2021/12/21 06:01:17;;;;;;;5.90;3.37;;;;;;;2.19;55.84;97300.56;5068354;28;20213;-67
2021/12/21 06:03:44;;;;;;;5.77;3.30;;;;;;;2.07;56.42;97293.00;5067195;28;20205;-67
2021/12/21 06:06:15;;;;;;;5.00;3.60;;;;;;;2.04;56.67;97290.50;5066417;28;20236;-67
2021/12/21 06:08:45;;;;;;;3.97;2.30;;;;;;;2.09;56.92;97306.59;5068029;28;20692;-67
2021/12/21 06:11:14;;;;;;;6.67;2.70;;;;;;;2.01;57.81;97322.00;5066863;28;20654;-69
2021/12/21 06:27:15;;;;;;;2.87;2.37;;;;;;;2.07;58.92;97336.41;5067729;28;20213;-65
2021/12/21 06:29:42;;;;;;;2.70;2.50;;;;;;;2.00;59.50;97345.00;5067460;28;20219;-67
2021/12/21 06:32:10;;;;;;;3.27;2.57;;;;;;;2.09;58.84;97356.00;5067433;28;20209;-67
2021/12/21 06:34:38;;;;;;;4.03;3.03;;;;;;;2.09;58.90;97353.44;5067785;28;20182;-67
2021/12/21 06:37:05;;;;;;;3.97;3.03;;;;;;;2.10;59.84;97361.94;5067708;28;20260;-68
2021/12/21 06:39:33;;;;;;;3.33;2.77;;;;;;;2.03;60.04;97365.41;5067940;28;20189;-65
2021/12/21 06:42:01;;;;;;;7.10;3.20;;;;;;;1.99;61.00;97373.94;5067573;28;20189;-67
2021/12/21 06:44:30;;;;;;;6.17;3.30;;;;;;;2.00;60.40;97370.53;5067593;28;20189;-65
2021/12/21 06:52:31;;;;;;;5.33;3.60;;;;;;;2.15;61.50;97381.47;5066125;28;20205;-68
2021/12/21 06:55:00;;;;;;;5.67;4.60;;;;;;;2.11;61.95;97394.28;5067149;28;20709;-67
2021/12/21 06:57:28;;;;;;;6.50;4.03;;;;;;;2.07;62.41;97392.59;5066932;28;20254;-68
2021/12/21 06:59:56;;;;;;;6.23;3.77;;;;;;;2.00;62.07;97396.91;5066778;28;20292;-69
2021/12/21 07:02:23;;;;;;;7.77;4.13;;;;;;;2.00;63.22;97401.19;5067007;28;20189;-69
2021/12/21 07:04:50;;;;;;;5.70;3.77;;;;;;;1.99;63.48;97399.47;5065655;28;20217;-67
2021/12/21 07:07:18;;;;;;;4.70;3.63;;;;;;;1.79;63.01;97397.06;5065588;28;20189;-68
2021/12/21 07:09:54;;;;;;;8.60;5.73;;;;;;;1.84;64.09;97412.31;5067205;28;20185;-68
2021/12/21 07:20:23;;;;;;;7.97;4.60;;;;;;;1.45;65.79;97375.97;5066512;28;20196;-67
2021/12/21 07:22:50;;;;;;;3.83;2.20;;;;;;;1.60;67.58;97400.56;5067306;28;20217;-68
2021/12/21 07:25:18;;;;;;;7.20;4.30;;;;;;;1.61;68.39;97413.31;5066304;28;20220;-66
2021/12/21 07:27:45;;;;;;;23.50;10.37;;;;;;;1.72;67.49;97425.16;5066280;28;20284;-65
2021/12/21 07:30:12;;;;;;;60.07;26.77;;;;;;;1.79;68.08;97424.28;5065943;28;20288;-65
2021/12/21 07:32:39;;;;;;;33.17;13.97;;;;;;;1.89;67.66;97423.38;5066487;28;20264;-66
2021/12/21 07:35:07;;;;;;;14.23;8.47;;;;;;;1.89;68.08;97426.78;5066223;28;20194;-67
2021/12/21 07:37:35;;;;;;;12.93;5.87;;;;;;;1.90;66.22;97419.94;5065627;28;20716;-64
2021/12/21 07:40:04;;;;;;;9.90;5.67;;;;;;;1.77;65.95;97421.75;5065954;28;20628;-64
2021/12/21 07:42:32;;;;;;;8.73;4.00;;;;;;;1.63;66.74;97416.69;5065953;28;20318;-67
2021/12/21 07:44:59;;;;;;;13.93;7.30;;;;;;;1.70;66.76;97419.22;5064573;28;20249;-68
2021/12/21 07:47:27;;;;;;;9.60;5.30;;;;;;;1.63;67.35;97403.94;5064412;28;20296;-65
2021/12/21 07:49:54;;;;;;;7.53;4.63;;;;;;;1.96;67.15;97427.59;5066023;28;20185;-68
2021/12/21 07:52:22;;;;;;;5.90;4.07;;;;;;;2.07;66.28;97418.16;5064783;28;20793;-67
2021/12/21 07:54:49;;;;;;;7.57;4.67;;;;;;;2.10;65.70;97428.34;5065814;28;20185;-66
2021/12/21 07:57:16;;;;;;;10.90;5.00;;;;;;;2.14;66.22;97435.13;5065182;28;20232;-67
2021/12/21 07:59:44;;;;;;;6.57;3.93;;;;;;;2.19;65.39;97433.38;5064042;28;20243;-67
2021/12/21 08:02:12;;;;;;;5.37;3.60;;;;;;;2.19;63.92;97429.13;5064055;28;20224;-67
2021/12/21 08:04:42;;;;;;;6.33;3.83;;;;;;;2.33;64.20;97418.81;5064284;28;20220;-67
2021/12/21 08:07:14;;;;;;;12.40;6.17;;;;;;;2.44;63.39;97445.13;5065694;28;20228;-69
2021/12/21 08:09:46;;;;;;;9.33;4.03;;;;;;;2.48;61.76;97441.69;5047685;28;20679;-68
2021/12/21 08:12:16;;;;;;;6.40;3.83;;;;;;;2.39;61.80;97446.88;5065584;28;20207;-69
2021/12/21 08:14:48;;;;;;;6.40;4.93;;;;;;;2.50;62.27;97455.31;5063854;28;20246;-65
2021/12/21 08:17:16;;;;;;;8.00;4.87;;;;;;;2.56;61.82;97447.59;5065504;28;20238;-64
2021/12/21 08:19:44;;;;;;;6.23;4.13;;;;;;;2.53;60.85;97451.88;5064178;28;20193;-67
2021/12/21 08:22:12;;;;;;;5.10;3.77;;;;;;;2.61;61.64;97460.34;5065977;28;20485;-67
2021/12/21 08:24:41;;;;;;;7.27;4.17;;;;;;;2.49;60.55;97463.84;5064301;28;20640;-70
2021/12/21 08:27:08;;;;;;;8.37;4.27;;;;;;;2.47;61.01;97456.16;5065696;28;20220;-68
2021/12/21 08:29:36;;;;;;;8.20;4.57;;;;;;;2.59;61.39;97459.50;5063845;28;20193;-68
2021/12/21 08:32:03;;;;;;;10.30;4.00;;;;;;;2.54;61.00;97461.22;5080255;28;20560;-65
2021/12/21 08:34:30;;;;;;;6.87;5.13;;;;;;;2.62;60.04;97472.28;5065229;28;20200;-66
2021/12/21 08:36:58;;;;;;;4.27;3.00;;;;;;;2.59;59.76;97474.84;5065399;28;20637;-67
2021/12/21 08:39:26;;;;;;;12.80;5.33;;;;;;;2.59;59.63;97462.91;5080758;28;20663;-68
2021/12/21 08:41:59;;;;;;;11.80;6.23;;;;;;;2.65;59.30;97469.69;5063502;28;20193;-67
2021/12/21 08:44:27;;;;;;;13.10;6.00;;;;;;;2.70;59.16;97473.06;5065523;28;20285;-71
2021/12/21 08:46:58;;;;;;;7.87;4.90;;;;;;;2.80;58.15;97462.75;5065290;28;20225;-67
2021/12/21 08:49:26;;;;;;;8.53;5.50;;;;;;;2.86;57.97;97470.38;5046951;28;20193;-69
2021/12/21 08:51:55;;;;;;;9.87;5.60;;;;;;;2.77;58.41;97460.19;5063713;28;20205;-66
2021/12/21 08:54:22;;;;;;;6.73;4.77;;;;;;;2.83;56.62;97461.84;5065079;28;20201;-69
2021/12/21 08:56:51;;;;;;;7.87;4.80;;;;;;;2.82;56.75;97458.47;5065010;28;20201;-68
2021/12/21 08:59:19;;;;;;;7.03;4.90;;;;;;;2.81;56.42;97468.69;5080329;28;20601;-70
2021/12/21 09:01:46;;;;;;;7.80;4.17;;;;;;;2.83;55.59;97460.16;5065217;28;20194;-69
2021/12/21 09:04:19;;;;;;;3.90;3.37;;;;;;;2.77;55.51;97457.66;5064741;28;20201;-68
2021/12/21 09:06:46;;;;;;;6.30;4.70;;;;;;;2.68;54.00;97452.59;5064862;28;20311;-68
2021/12/21 09:09:14;;;;;;;14.77;7.40;;;;;;;2.71;53.92;97455.13;5066067;28;20193;-68
2021/12/21 09:11:45;;;;;;;5.67;3.73;;;;;;;2.67;53.87;97456.03;5068470;28;20193;-68
2021/12/21 09:14:13;;;;;;;7.13;3.80;;;;;;;2.62;53.90;97455.22;5067148;28;20714;-65
2021/12/21 09:16:40;;;;;;;7.27;4.97;;;;;;;2.72;54.47;97464.50;5068320;28;20205;-68
2021/12/21 09:19:07;;;;;;;4.77;3.20;;;;;;;2.70;53.78;97462.84;5068359;28;20243;-67
2021/12/21 09:21:34;;;;;;;2.93;2.40;;;;;;;2.57;54.16;97456.13;5068532;28;20201;-69
2021/12/21 09:24:01;;;;;;;4.80;3.30;;;;;;;2.68;53.74;97467.94;5068397;28;20204;-68
2021/12/21 09:26:29;;;;;;;5.37;2.93;;;;;;;2.81;54.23;97461.88;5066339;28;20256;-69
2021/12/21 09:28:56;;;;;;;8.80;4.07;;;;;;;2.86;53.08;97474.63;5067383;28;20762;-71
2021/12/21 09:31:23;;;;;;;4.13;2.77;;;;;;;2.72;53.34;97461.94;5068696;28;20272;-68
2021/12/21 09:33:51;;;;;;;8.20;4.87;;;;;;;2.86;52.63;97460.13;5068485;28;20205;-67
2021/12/21 09:36:20;;;;;;;5.37;3.70;;;;;;;2.99;52.66;97454.03;5067080;28;20292;-69
2021/12/21 09:38:47;;;;;;;4.27;2.80;;;;;;;2.99;52.02;97458.28;5068327;28;20664;-67
2021/12/21 09:41:14;;;;;;;8.57;3.87;;;;;;;3.02;52.29;97448.88;5068233;28;20643;-67
2021/12/21 09:43:43;;;;;;;3.33;2.60;;;;;;;2.99;51.78;97460.84;5067838;28;20221;-68
2021/12/21 09:46:11;;;;;;;5.87;3.00;;;;;;;2.90;51.80;97443.91;5068391;28;20220;-69
2021/12/21 09:48:38;;;;;;;3.27;2.90;;;;;;;3.01;52.12;97462.53;5066526;28;20524;-68
2021/12/21 09:51:06;;;;;;;3.83;2.23;;;;;;;2.98;51.45;97449.78;5067496;28;20220;-68
2021/12/21 09:53:35;;;;;;;3.83;2.80;;;;;;;2.98;51.93;97465.13;5066648;28;20625;-68
2021/12/21 09:56:05;;;;;;;3.87;2.90;;;;;;;2.95;51.92;97441.28;5068355;28;20714;-67
2021/12/21 09:58:33;;;;;;;6.77;3.33;;;;;;;3.06;51.61;97453.13;5066669;28;20208;-67
2021/12/21 10:01:01;;;;;;;5.33;2.20;;;;;;;2.80;51.38;97415.88;5082764;28;20220;-66
2021/12/21 10:03:28;;;;;;;2.23;1.90;;;;;;;2.93;50.97;97433.63;5068090;28;20195;-68
2021/12/21 10:06:10;;;;;;;4.67;2.83;;;;;;;3.06;51.10;97448.00;5066407;28;20735;-70
2021/12/21 10:08:38;;;;;;;5.43;3.10;;;;;;;3.05;50.70;97446.28;5083140;28;20194;-68
2021/12/21 10:11:07;;;;;;;8.23;2.63;;;;;;;3.02;50.37;97446.34;5066549;28;20570;-70
2021/12/21 10:13:37;;;;;;;3.20;2.50;;;;;;;3.04;51.51;97449.72;5067393;28;20208;-69
2021/12/21 10:16:06;;;;;;;3.23;1.90;;;;;;;3.00;51.16;97460.84;5067478;28;20281;-70
2021/12/21 10:18:38;;;;;;;2.70;2.20;;;;;;;2.99;51.26;97454.03;5066454;28;20205;-66
2021/12/21 10:21:07;;;;;;;2.73;1.97;;;;;;;3.00;50.68;97463.41;5066697;28;20196;-69
2021/12/21 10:23:37;;;;;;;2.97;2.37;;;;;;;2.96;51.50;97446.41;5067628;28;20263;-68
2021/12/21 10:26:11;;;;;;;4.30;2.50;;;;;;;2.80;51.97;97416.72;5067375;28;20715;-65
2021/12/21 10:28:39;;;;;;;3.43;2.20;;;;;;;3.00;51.68;97445.50;5067310;28;20193;-69
2021/12/21 10:31:14;;;;;;;7.90;2.70;;;;;;;3.03;51.13;97448.00;5067257;28;20225;-68
2021/12/21 10:33:45;;;;;;;2.40;2.20;;;;;;;2.96;50.38;97443.84;5067244;28;20590;-69
2021/12/21 10:36:13;;;;;;;6.17;2.73;;;;;;;2.94;50.88;97426.81;5067418;28;20228;-69
2021/12/21 10:38:48;;;;;;;8.17;3.00;;;;;;;3.06;50.83;97448.00;5067074;28;20227;-69
2021/12/21 10:41:19;;;;;;;3.43;2.73;;;;;;;3.07;51.15;97429.22;5066523;28;20189;-68
2021/12/21 10:43:59;;;;;;;3.57;2.70;;;;;;;2.97;50.08;97435.28;5065675;28;20229;-67
2021/12/21 10:46:33;;;;;;;3.33;2.40;;;;;;;2.93;50.07;97436.19;5066767;28;20252;-68
2021/12/21 10:49:19;;;;;;;4.63;2.77;;;;;;;3.00;49.72;97453.16;5067244;28;20235;-68
2021/12/21 10:51:53;;;;;;;3.60;2.47;;;;;;;2.63;53.85;97456.06;5066910;28;20197;-67
2021/12/21 10:54:36;;;;;;;9.37;2.60;;;;;;;2.37;55.79;97463.94;5066384;28;20261;-68
2021/12/21 10:57:29;;;;;;;2.37;2.10;;;;;;;2.27;57.36;97452.91;5065269;28;20204;-71
2021/12/21 10:59:59;;;;;;;3.03;2.20;;;;;;;2.26;56.99;97460.59;5065791;28;20259;-69
2021/12/21 11:02:31;;;;;;;4.03;2.40;;;;;;;2.21;58.77;97459.78;5066920;28;20279;-67
2021/12/21 11:05:07;;;;;;;4.30;2.60;;;;;;;2.29;59.05;97460.56;5066967;28;20283;-67
2021/12/21 11:07:46;;;;;;;2.20;2.00;;;;;;;2.27;59.45;97450.38;5066522;28;20238;-68
2021/12/21 11:10:26;;;;;;;3.40;2.67;;;;;;;2.23;60.68;97451.25;5065465;28;20185;-70
2021/12/21 11:13:12;;;;;;;4.10;3.13;;;;;;;2.33;62.41;97454.56;5066864;28;20227;-70
2021/12/21 11:15:47;;;;;;;5.77;3.60;;;;;;;2.61;60.59;97456.09;5066463;28;20610;-68
2021/12/21 11:18:19;;;;;;;3.83;2.40;;;;;;;2.67;59.09;97447.50;5064832;28;20203;-65
2021/12/21 11:20:48;;;;;;;2.60;2.13;;;;;;;2.56;60.32;97452.69;5066618;28;20189;-66
2021/12/21 11:23:18;;;;;;;2.47;2.03;;;;;;;2.32;59.95;97465.66;5066800;28;20193;-69
2021/12/21 11:25:48;;;;;;;3.17;2.10;;;;;;;2.16;62.37;97467.47;5066940;28;20213;-67
2021/12/21 11:28:20;;;;;;;5.40;2.83;;;;;;;1.89;62.73;97474.44;5065306;28;20604;-70
2021/12/21 11:30:48;;;;;;;4.73;2.90;;;;;;;2.01;62.98;97464.16;5066212;28;20205;-69
2021/12/21 11:33:18;;;;;;;5.37;2.67;;;;;;;2.15;61.37;97462.38;5064757;28;20196;-69
2021/12/21 11:38:33;;;;;;;4.67;2.23;;;;;;;2.39;59.59;97469.88;5064832;28;20200;-66
2021/12/21 11:41:00;;;;;;;4.87;2.83;;;;;;;2.38;59.26;97455.41;5066492;28;20276;-69
2021/12/21 11:43:47;;;;;;;3.97;3.53;;;;;;;2.42;59.29;97464.75;5065171;28;20237;-69
2021/12/21 11:46:24;;;;;;;7.30;3.53;;;;;;;2.54;59.36;97464.66;5066263;28;20228;-68
2021/12/21 11:49:13;;;;;;;5.63;4.10;;;;;;;2.60;58.50;97467.16;5064701;28;20231;-71
2021/12/21 11:51:42;;;;;;;5.97;3.20;;;;;;;2.71;58.97;97461.94;5066146;28;20181;-69
2021/12/21 11:54:18;;;;;;;4.73;2.50;;;;;;;2.65;57.38;97467.13;5065985;28;20238;-67
2021/12/21 11:56:45;;;;;;;5.87;3.40;;;;;;;2.72;57.30;97469.59;5066293;28;20239;-70
2021/12/21 11:59:22;;;;;;;3.83;2.80;;;;;;;2.64;56.93;97458.59;5065961;28;20228;-68
2021/12/21 12:01:49;;;;;;;10.37;3.63;;;;;;;2.74;57.05;97470.44;5065847;28;20232;-69
2021/12/21 12:04:16;;;;;;;6.80;3.83;;;;;;;2.59;57.24;97462.91;5066529;28;20207;-70
2021/12/21 12:06:50;;;;;;;6.37;3.33;;;;;;;2.59;57.56;97464.63;5066048;28;20224;-66
2021/12/21 12:09:26;;;;;;;4.27;2.97;;;;;;;2.61;57.89;97463.75;5065710;28;20204;-68
2021/12/21 12:12:09;;;;;;;5.27;2.90;;;;;;;2.61;57.17;97463.75;5065754;28;20184;-67
2021/12/21 12:14:37;;;;;;;5.00;3.30;;;;;;;2.62;57.29;97470.53;5065588;28;20193;-68
2021/12/21 12:17:16;;;;;;;4.70;3.00;;;;;;;2.34;55.86;97438.41;5064321;28;20629;-69
2021/12/21 12:19:54;;;;;;;5.90;2.90;;;;;;;2.56;55.83;97473.16;5064389;28;20594;-70
2021/12/21 12:22:41;;;;;;;5.33;3.07;;;;;;;2.61;56.31;97462.91;5065431;28;20227;-67
2021/12/21 12:25:20;;;;;;;4.73;3.63;;;;;;;2.77;55.83;97480.66;5065965;28;20220;-68
2021/12/21 12:27:51;;;;;;;5.57;2.67;;;;;;;2.83;55.98;97484.88;5064991;28;20289;-68
2021/12/21 12:30:25;;;;;;;6.07;3.30;;;;;;;2.66;54.98;97481.63;5066414;28;20275;-66
2021/12/21 12:33:02;;;;;;;4.73;2.93;;;;;;;2.50;55.47;97480.88;5069788;28;20637;-65
2021/12/21 12:35:35;;;;;;;4.50;3.10;;;;;;;2.61;55.39;97468.00;5071786;28;20208;-66
2021/12/21 12:38:18;;;;;;;4.90;3.10;;;;;;;2.74;55.04;97485.78;5069167;28;20265;-68
2021/12/21 12:40:52;;;;;;;7.23;3.40;;;;;;;2.76;55.75;97483.22;5068207;28;20242;-71
2021/12/21 12:43:23;;;;;;;6.17;4.17;;;;;;;2.78;55.76;97484.06;5068166;28;20223;-69
2021/12/21 12:45:54;;;;;;;6.53;5.07;;;;;;;2.78;56.11;97466.16;5071226;28;20248;-69
2021/12/21 12:48:40;;;;;;;5.57;3.40;;;;;;;2.79;55.82;97486.59;5070793;28;20547;-69
2021/12/21 12:51:09;;;;;;;4.23;2.80;;;;;;;2.85;51.80;97484.00;5070773;28;20254;-70
2021/12/21 12:53:39;;;;;;;6.37;2.90;;;;;;;2.81;52.66;97486.59;5070109;28;20883;-69
2021/12/21 12:56:09;;;;;;;4.77;2.70;;;;;;;2.78;52.70;97495.13;5070138;28;20777;-71
2021/12/21 12:58:48;;;;;;;4.00;2.70;;;;;;;2.83;52.35;97500.19;5069504;28;20185;-69
2021/12/21 13:01:21;;;;;;;4.73;2.90;;;;;;;2.73;51.37;97499.44;5069173;28;20254;-68
2021/12/21 13:03:50;;;;;;;4.83;2.97;;;;;;;2.65;50.85;97492.69;5067501;28;20676;-69
2021/12/21 13:06:33;;;;;;;5.90;2.93;;;;;;;2.66;50.72;97497.78;5069188;28;20193;-68
2021/12/21 13:09:03;;;;;;;7.93;3.40;;;;;;;2.67;51.36;97501.19;5084781;28;20220;-70
2021/12/21 13:11:33;;;;;;;3.63;3.03;;;;;;;2.65;50.37;97490.97;5069216;28;20189;-65
2021/12/21 13:14:00;;;;;;;6.17;4.07;;;;;;;2.72;52.05;97500.28;5069113;28;20197;-67
2021/12/21 13:16:31;;;;;;;7.67;4.77;;;;;;;2.91;51.09;97501.84;5067652;28;20193;-65
2021/12/21 13:19:09;;;;;;;8.17;4.50;;;;;;;2.97;51.43;97513.72;5068651;28;20280;-69
2021/12/21 13:21:58;;;;;;;5.33;4.13;;;;;;;2.92;51.11;97511.22;5069163;28;20656;-67
2021/12/21 13:24:33;;;;;;;6.33;3.90;;;;;;;2.72;51.43;97505.41;5068744;28;20193;-68
2021/12/21 13:27:07;;;;;;;6.50;4.57;;;;;;;2.80;51.79;97521.56;5068642;28;20230;-65
2021/12/21 13:29:35;;;;;;;8.13;4.90;;;;;;;2.82;51.73;97535.19;5067445;28;20189;-69
2021/12/21 13:32:11;;;;;;;6.00;4.13;;;;;;;2.70;53.12;97517.34;5068622;28;20208;-68
2021/12/21 13:34:41;;;;;;;6.17;4.30;;;;;;;2.64;53.97;97530.19;5068576;28;20200;-66
2021/12/21 13:37:13;;;;;;;4.93;3.60;;;;;;;2.61;53.94;97526.81;5068926;28;20197;-68
2021/12/21 13:39:45;;;;;;;7.07;4.90;;;;;;;2.66;54.15;97538.69;5068796;28;20197;-70
2021/12/21 13:42:18;;;;;;;6.77;4.57;;;;;;;2.73;54.12;97532.69;5068360;28;20247;-69
2021/12/21 13:45:16;;;;;;;8.43;4.47;;;;;;;2.73;53.75;97525.00;5068537;28;20209;-68
2021/12/21 13:47:46;;;;;;;8.83;5.47;;;;;;;2.80;53.27;97539.47;5059776;28;20743;-68
2021/12/21 13:50:25;;;;;;;7.13;3.90;;;;;;;2.76;53.28;97537.75;5067233;28;20200;-69
2021/12/21 13:52:58;;;;;;;4.23;3.20;;;;;;;2.83;52.57;97541.97;5068468;28;20579;-69
2021/12/21 13:55:40;;;;;;;5.67;4.10;;;;;;;2.74;52.91;97552.25;5067131;28;20201;-69
2021/12/21 13:58:10;;;;;;;5.10;3.60;;;;;;;2.68;53.94;97556.59;5066808;28;20289;-66
2021/12/21 14:00:40;;;;;;;3.87;3.33;;;;;;;2.48;54.77;97569.47;5068236;28;20254;-70
2021/12/21 14:03:20;;;;;;;4.27;2.70;;;;;;;2.20;59.98;97580.72;5066879;28;20295;-70
2021/12/21 14:05:55;;;;;;;3.47;3.00;;;;;;;1.69;66.68;97599.59;5066647;28;20706;-70
2021/12/21 14:08:22;;;;;;;6.40;4.40;;;;;;;1.56;71.15;97598.78;5067695;28;20271;-69
2021/12/21 14:10:53;;;;;;;6.67;4.40;;;;;;;1.50;73.11;97588.59;5067973;28;20549;-69
2021/12/21 14:13:33;;;;;;;8.20;5.87;;;;;;;1.53;71.55;97593.69;5068187;28;20243;-69
2021/12/21 14:16:08;;;;;;;8.10;4.80;;;;;;;1.41;72.27;97591.16;5066595;28;20220;-64
2021/12/21 14:18:39;;;;;;;6.80;5.10;;;;;;;1.44;71.84;97597.97;5068073;28;20195;-68